sensor_id;sensor_type;location;lat;lon;timestamp;P1;durP1;ratioP1;P2;durP2;ratioP2
17858;SDS011;35426;30.698;104.050;2023-01-09T00:01:37;422.27;;;174.97;;
17858;SDS011;35426;30.698;104.050;2023-01-09T00:04:13;413.50;;;168.67;;
17858;SDS011;35426;30.698;104.050;2023-01-09T00:06:50;422.10;;;177.07;;
17858;SDS011;35426;30.698;104.050;2023-01-09T00:09:27;426.50;;;177.93;;
17858;SDS011;35426;30.698;104.050;2023-01-09T00:12:00;433.53;;;174.83;;
17858;SDS011;35426;30.698;104.050;2023-01-09T00:14:34;425.83;;;167.13;;
17858;SDS011;35426;30.698;104.050;2023-01-09T00:17:07;431.60;;;168.47;;
17858;SDS011;35426;30.698;104.050;2023-01-09T00:19:40;426.57;;;170.67;;
17858;SDS011;35426;30.698;104.050;2023-01-09T00:22:16;437.60;;;179.80;;
17858;SDS011;35426;30.698;104.050;2023-01-09T00:24:49;423.07;;;170.90;;
17858;SDS011;35426;30.698;104.050;2023-01-09T00:27:24;430.90;;;175.97;;
17858;SDS011;35426;30.698;104.050;2023-01-09T00:29:57;436.07;;;174.23;;
17858;SDS011;35426;30.698;104.050;2023-01-09T00:32:32;429.87;;;176.00;;
17858;SDS011;35426;30.698;104.050;2023-01-09T00:35:06;422.07;;;171.00;;
17858;SDS011;35426;30.698;104.050;2023-01-09T00:37:47;435.93;;;172.43;;
17858;SDS011;35426;30.698;104.050;2023-01-09T00:40:20;428.77;;;170.57;;
17858;SDS011;35426;30.698;104.050;2023-01-09T00:42:54;423.53;;;174.33;;
17858;SDS011;35426;30.698;104.050;2023-01-09T00:45:28;428.03;;;175.40;;
17858;SDS011;35426;30.698;104.050;2023-01-09T00:48:05;430.10;;;175.90;;
17858;SDS011;35426;30.698;104.050;2023-01-09T00:50:43;430.93;;;164.60;;
17858;SDS011;35426;30.698;104.050;2023-01-09T00:53:20;436.00;;;172.70;;
17858;SDS011;35426;30.698;104.050;2023-01-09T00:55:56;445.40;;;175.53;;
17858;SDS011;35426;30.698;104.050;2023-01-09T00:58:33;449.90;;;180.40;;
17858;SDS011;35426;30.698;104.050;2023-01-09T01:01:07;431.70;;;173.83;;
17858;SDS011;35426;30.698;104.050;2023-01-09T01:03:41;433.13;;;172.33;;
17858;SDS011;35426;30.698;104.050;2023-01-09T01:06:15;425.97;;;172.87;;
17858;SDS011;35426;30.698;104.050;2023-01-09T01:09:06;429.93;;;173.53;;
17858;SDS011;35426;30.698;104.050;2023-01-09T01:11:40;432.60;;;173.43;;
17858;SDS011;35426;30.698;104.050;2023-01-09T01:14:14;427.63;;;169.47;;
17858;SDS011;35426;30.698;104.050;2023-01-09T01:16:58;441.50;;;172.80;;
17858;SDS011;35426;30.698;104.050;2023-01-09T01:19:32;404.03;;;168.63;;
17858;SDS011;35426;30.698;104.050;2023-01-09T01:22:06;433.93;;;171.57;;
17858;SDS011;35426;30.698;104.050;2023-01-09T01:24:42;423.63;;;165.80;;
17858;SDS011;35426;30.698;104.050;2023-01-09T01:27:17;414.80;;;164.70;;
17858;SDS011;35426;30.698;104.050;2023-01-09T01:29:51;413.57;;;164.97;;
17858;SDS011;35426;30.698;104.050;2023-01-09T01:32:25;414.00;;;162.07;;
17858;SDS011;35426;30.698;104.050;2023-01-09T01:34:59;418.80;;;164.10;;
17858;SDS011;35426;30.698;104.050;2023-01-09T01:37:32;421.70;;;164.87;;
17858;SDS011;35426;30.698;104.050;2023-01-09T01:40:09;415.73;;;166.27;;
17858;SDS011;35426;30.698;104.050;2023-01-09T01:42:46;420.90;;;159.97;;
17858;SDS011;35426;30.698;104.050;2023-01-09T01:45:21;399.17;;;160.03;;
17858;SDS011;35426;30.698;104.050;2023-01-09T01:47:56;402.97;;;164.27;;
17858;SDS011;35426;30.698;104.050;2023-01-09T01:50:34;414.43;;;159.47;;
17858;SDS011;35426;30.698;104.050;2023-01-09T01:53:12;402.83;;;160.37;;
17858;SDS011;35426;30.698;104.050;2023-01-09T01:56:05;418.90;;;158.77;;
17858;SDS011;35426;30.698;104.050;2023-01-09T01:58:42;401.43;;;160.97;;
17858;SDS011;35426;30.698;104.050;2023-01-09T02:01:19;405.57;;;161.10;;
17858;SDS011;35426;30.698;104.050;2023-01-09T02:03:56;410.03;;;160.17;;
17858;SDS011;35426;30.698;104.050;2023-01-09T02:06:33;403.50;;;157.17;;
17858;SDS011;35426;30.698;104.050;2023-01-09T02:09:09;394.43;;;159.20;;
17858;SDS011;35426;30.698;104.050;2023-01-09T02:11:49;395.33;;;158.13;;
17858;SDS011;35426;30.698;104.050;2023-01-09T02:14:28;393.63;;;155.90;;
17858;SDS011;35426;30.698;104.050;2023-01-09T02:17:06;399.70;;;156.37;;
17858;SDS011;35426;30.698;104.050;2023-01-09T02:20:04;396.30;;;157.17;;
17858;SDS011;35426;30.698;104.050;2023-01-09T02:22:59;395.33;;;153.07;;
17858;SDS011;35426;30.698;104.050;2023-01-09T02:25:55;420.73;;;153.50;;
17858;SDS011;35426;30.698;104.050;2023-01-09T02:28:57;396.40;;;154.00;;
17858;SDS011;35426;30.698;104.050;2023-01-09T02:31:58;377.47;;;149.53;;
17858;SDS011;35426;30.698;104.050;2023-01-09T02:34:41;397.67;;;154.90;;
17858;SDS011;35426;30.698;104.050;2023-01-09T02:37:27;378.07;;;153.90;;
17858;SDS011;35426;30.698;104.050;2023-01-09T02:40:12;410.33;;;158.53;;
17858;SDS011;35426;30.698;104.050;2023-01-09T02:42:53;394.90;;;159.87;;
17858;SDS011;35426;30.698;104.050;2023-01-09T02:45:30;395.77;;;157.30;;
17858;SDS011;35426;30.698;104.050;2023-01-09T02:48:09;391.40;;;156.77;;
17858;SDS011;35426;30.698;104.050;2023-01-09T02:50:46;406.73;;;157.03;;
17858;SDS011;35426;30.698;104.050;2023-01-09T02:56:46;385.10;;;150.47;;
17858;SDS011;35426;30.698;104.050;2023-01-09T02:59:46;403.80;;;154.80;;
17858;SDS011;35426;30.698;104.050;2023-01-09T03:02:43;384.80;;;154.83;;
17858;SDS011;35426;30.698;104.050;2023-01-09T03:05:29;387.73;;;156.63;;
17858;SDS011;35426;30.698;104.050;2023-01-09T03:08:12;386.90;;;149.57;;
17858;SDS011;35426;30.698;104.050;2023-01-09T03:10:51;397.83;;;155.17;;
17858;SDS011;35426;30.698;104.050;2023-01-09T03:13:35;366.37;;;149.43;;
17858;SDS011;35426;30.698;104.050;2023-01-09T03:16:16;377.20;;;152.53;;
17858;SDS011;35426;30.698;104.050;2023-01-09T03:18:56;399.23;;;156.40;;
17858;SDS011;35426;30.698;104.050;2023-01-09T03:21:37;410.97;;;160.43;;
17858;SDS011;35426;30.698;104.050;2023-01-09T03:24:13;369.80;;;151.33;;
17858;SDS011;35426;30.698;104.050;2023-01-09T03:26:51;375.80;;;152.47;;
17858;SDS011;35426;30.698;104.050;2023-01-09T03:29:29;363.63;;;152.10;;
17858;SDS011;35426;30.698;104.050;2023-01-09T03:32:05;387.67;;;154.37;;
17858;SDS011;35426;30.698;104.050;2023-01-09T03:34:41;385.80;;;154.97;;
17858;SDS011;35426;30.698;104.050;2023-01-09T03:37:18;388.93;;;153.30;;
17858;SDS011;35426;30.698;104.050;2023-01-09T03:39:54;385.63;;;154.77;;
17858;SDS011;35426;30.698;104.050;2023-01-09T03:42:29;369.67;;;150.83;;
17858;SDS011;35426;30.698;104.050;2023-01-09T03:45:06;358.33;;;149.43;;
17858;SDS011;35426;30.698;104.050;2023-01-09T03:47:42;377.60;;;153.37;;
17858;SDS011;35426;30.698;104.050;2023-01-09T03:50:21;371.90;;;152.73;;
17858;SDS011;35426;30.698;104.050;2023-01-09T03:53:09;372.73;;;154.23;;
17858;SDS011;35426;30.698;104.050;2023-01-09T03:55:45;374.93;;;155.27;;
17858;SDS011;35426;30.698;104.050;2023-01-09T03:58:22;376.47;;;150.77;;
17858;SDS011;35426;30.698;104.050;2023-01-09T04:00:59;370.47;;;154.03;;
17858;SDS011;35426;30.698;104.050;2023-01-09T04:03:41;352.67;;;148.97;;
17858;SDS011;35426;30.698;104.050;2023-01-09T04:06:23;368.27;;;150.47;;
17858;SDS011;35426;30.698;104.050;2023-01-09T04:09:08;364.30;;;148.53;;
17858;SDS011;35426;30.698;104.050;2023-01-09T04:11:44;380.17;;;153.37;;
17858;SDS011;35426;30.698;104.050;2023-01-09T04:14:20;361.27;;;149.57;;
17858;SDS011;35426;30.698;104.050;2023-01-09T04:16:56;361.30;;;149.00;;
17858;SDS011;35426;30.698;104.050;2023-01-09T04:19:37;373.70;;;149.27;;
17858;SDS011;35426;30.698;104.050;2023-01-09T04:22:12;353.80;;;148.00;;
17858;SDS011;35426;30.698;104.050;2023-01-09T04:24:50;348.17;;;144.40;;
17858;SDS011;35426;30.698;104.050;2023-01-09T04:27:26;361.73;;;150.30;;
17858;SDS011;35426;30.698;104.050;2023-01-09T04:30:02;356.37;;;151.77;;
17858;SDS011;35426;30.698;104.050;2023-01-09T04:32:38;337.97;;;146.70;;
17858;SDS011;35426;30.698;104.050;2023-01-09T04:35:16;348.77;;;149.83;;
17858;SDS011;35426;30.698;104.050;2023-01-09T04:37:54;359.10;;;149.50;;
17858;SDS011;35426;30.698;104.050;2023-01-09T04:40:34;348.93;;;149.70;;
17858;SDS011;35426;30.698;104.050;2023-01-09T04:43:11;348.93;;;150.73;;
17858;SDS011;35426;30.698;104.050;2023-01-09T04:45:47;343.50;;;148.90;;
17858;SDS011;35426;30.698;104.050;2023-01-09T04:48:28;358.27;;;151.70;;
17858;SDS011;35426;30.698;104.050;2023-01-09T04:51:06;335.67;;;147.80;;
17858;SDS011;35426;30.698;104.050;2023-01-09T04:53:42;346.37;;;147.67;;
17858;SDS011;35426;30.698;104.050;2023-01-09T04:56:21;352.47;;;148.10;;
17858;SDS011;35426;30.698;104.050;2023-01-09T04:58:59;339.77;;;145.87;;
17858;SDS011;35426;30.698;104.050;2023-01-09T05:01:35;343.90;;;145.47;;
17858;SDS011;35426;30.698;104.050;2023-01-09T05:04:11;334.33;;;147.80;;
17858;SDS011;35426;30.698;104.050;2023-01-09T05:06:47;345.17;;;148.47;;
17858;SDS011;35426;30.698;104.050;2023-01-09T05:09:23;327.67;;;146.33;;
17858;SDS011;35426;30.698;104.050;2023-01-09T05:12:05;329.23;;;144.60;;
17858;SDS011;35426;30.698;104.050;2023-01-09T05:14:41;323.97;;;142.30;;
17858;SDS011;35426;30.698;104.050;2023-01-09T05:17:18;351.30;;;148.67;;
17858;SDS011;35426;30.698;104.050;2023-01-09T05:19:53;353.77;;;150.17;;
17858;SDS011;35426;30.698;104.050;2023-01-09T05:22:31;333.50;;;149.17;;
17858;SDS011;35426;30.698;104.050;2023-01-09T05:25:11;342.30;;;147.83;;
17858;SDS011;35426;30.698;104.050;2023-01-09T05:27:49;335.97;;;145.10;;
17858;SDS011;35426;30.698;104.050;2023-01-09T05:30:25;325.97;;;141.40;;
17858;SDS011;35426;30.698;104.050;2023-01-09T05:33:03;316.17;;;141.03;;
17858;SDS011;35426;30.698;104.050;2023-01-09T05:35:42;309.60;;;137.87;;
17858;SDS011;35426;30.698;104.050;2023-01-09T05:38:18;313.97;;;137.80;;
17858;SDS011;35426;30.698;104.050;2023-01-09T05:40:56;308.93;;;135.17;;
17858;SDS011;35426;30.698;104.050;2023-01-09T05:43:34;309.10;;;134.23;;
17858;SDS011;35426;30.698;104.050;2023-01-09T05:46:09;307.43;;;134.73;;
17858;SDS011;35426;30.698;104.050;2023-01-09T05:48:46;303.17;;;132.47;;
17858;SDS011;35426;30.698;104.050;2023-01-09T05:51:22;263.23;;;119.47;;
17858;SDS011;35426;30.698;104.050;2023-01-09T05:54:00;247.53;;;113.67;;
17858;SDS011;35426;30.698;104.050;2023-01-09T05:56:37;277.43;;;124.93;;
17858;SDS011;35426;30.698;104.050;2023-01-09T05:59:24;281.37;;;125.77;;
17858;SDS011;35426;30.698;104.050;2023-01-09T06:02:03;274.10;;;120.93;;
17858;SDS011;35426;30.698;104.050;2023-01-09T06:04:40;264.87;;;119.50;;
17858;SDS011;35426;30.698;104.050;2023-01-09T06:07:18;283.27;;;125.63;;
17858;SDS011;35426;30.698;104.050;2023-01-09T06:09:59;264.53;;;119.93;;
17858;SDS011;35426;30.698;104.050;2023-01-09T06:12:37;236.63;;;106.33;;
17858;SDS011;35426;30.698;104.050;2023-01-09T06:15:15;246.77;;;108.13;;
17858;SDS011;35426;30.698;104.050;2023-01-09T06:17:52;230.57;;;105.67;;
17858;SDS011;35426;30.698;104.050;2023-01-09T06:20:29;238.17;;;106.73;;
17858;SDS011;35426;30.698;104.050;2023-01-09T06:23:05;226.87;;;102.97;;
17858;SDS011;35426;30.698;104.050;2023-01-09T06:25:41;231.93;;;101.13;;
17858;SDS011;35426;30.698;104.050;2023-01-09T06:28:22;219.87;;;98.40;;
17858;SDS011;35426;30.698;104.050;2023-01-09T06:31:00;210.73;;;97.10;;
17858;SDS011;35426;30.698;104.050;2023-01-09T06:33:35;211.47;;;93.17;;
17858;SDS011;35426;30.698;104.050;2023-01-09T06:36:13;232.40;;;104.70;;
17858;SDS011;35426;30.698;104.050;2023-01-09T06:38:50;241.20;;;107.87;;
17858;SDS011;35426;30.698;104.050;2023-01-09T06:41:25;248.10;;;112.10;;
17858;SDS011;35426;30.698;104.050;2023-01-09T06:44:00;237.37;;;107.43;;
17858;SDS011;35426;30.698;104.050;2023-01-09T06:46:41;241.10;;;107.00;;
17858;SDS011;35426;30.698;104.050;2023-01-09T06:49:20;243.17;;;106.50;;
17858;SDS011;35426;30.698;104.050;2023-01-09T06:51:56;252.97;;;106.97;;
17858;SDS011;35426;30.698;104.050;2023-01-09T06:54:34;237.67;;;107.43;;
17858;SDS011;35426;30.698;104.050;2023-01-09T06:57:14;250.27;;;109.50;;
17858;SDS011;35426;30.698;104.050;2023-01-09T06:59:49;240.47;;;109.73;;
17858;SDS011;35426;30.698;104.050;2023-01-09T07:02:30;247.40;;;111.47;;
17858;SDS011;35426;30.698;104.050;2023-01-09T07:05:06;265.57;;;114.17;;
17858;SDS011;35426;30.698;104.050;2023-01-09T07:07:43;263.07;;;115.77;;
17858;SDS011;35426;30.698;104.050;2023-01-09T07:10:19;264.83;;;118.57;;
17858;SDS011;35426;30.698;104.050;2023-01-09T07:12:55;252.87;;;113.20;;
17858;SDS011;35426;30.698;104.050;2023-01-09T07:15:31;246.17;;;112.87;;
17858;SDS011;35426;30.698;104.050;2023-01-09T07:18:09;252.43;;;111.37;;
17858;SDS011;35426;30.698;104.050;2023-01-09T07:20:45;247.37;;;112.20;;
17858;SDS011;35426;30.698;104.050;2023-01-09T07:23:29;247.70;;;110.13;;
17858;SDS011;35426;30.698;104.050;2023-01-09T07:26:05;241.40;;;108.70;;
17858;SDS011;35426;30.698;104.050;2023-01-09T07:28:41;253.23;;;108.83;;
17858;SDS011;35426;30.698;104.050;2023-01-09T07:31:18;249.93;;;108.73;;
17858;SDS011;35426;30.698;104.050;2023-01-09T07:33:56;251.50;;;108.90;;
17858;SDS011;35426;30.698;104.050;2023-01-09T07:36:36;242.90;;;111.03;;
17858;SDS011;35426;30.698;104.050;2023-01-09T07:39:13;246.87;;;110.97;;
17858;SDS011;35426;30.698;104.050;2023-01-09T07:41:49;252.70;;;111.57;;
17858;SDS011;35426;30.698;104.050;2023-01-09T07:44:25;235.87;;;107.80;;
17858;SDS011;35426;30.698;104.050;2023-01-09T07:47:01;251.57;;;107.60;;
17858;SDS011;35426;30.698;104.050;2023-01-09T07:49:43;246.47;;;109.43;;
17858;SDS011;35426;30.698;104.050;2023-01-09T07:52:18;251.93;;;113.07;;
17858;SDS011;35426;30.698;104.050;2023-01-09T07:54:55;255.20;;;110.57;;
17858;SDS011;35426;30.698;104.050;2023-01-09T07:57:31;246.63;;;110.47;;
17858;SDS011;35426;30.698;104.050;2023-01-09T08:00:08;247.80;;;111.40;;
17858;SDS011;35426;30.698;104.050;2023-01-09T08:02:50;259.67;;;111.70;;
17858;SDS011;35426;30.698;104.050;2023-01-09T08:05:28;249.77;;;111.90;;
17858;SDS011;35426;30.698;104.050;2023-01-09T08:08:12;251.97;;;110.40;;
17858;SDS011;35426;30.698;104.050;2023-01-09T08:11:04;247.33;;;109.13;;
17858;SDS011;35426;30.698;104.050;2023-01-09T08:13:42;245.83;;;107.27;;
17858;SDS011;35426;30.698;104.050;2023-01-09T08:16:20;261.13;;;113.17;;
17858;SDS011;35426;30.698;104.050;2023-01-09T08:18:56;248.00;;;109.57;;
17858;SDS011;35426;30.698;104.050;2023-01-09T08:21:34;248.37;;;109.93;;
17858;SDS011;35426;30.698;104.050;2023-01-09T08:24:10;247.80;;;109.07;;
17858;SDS011;35426;30.698;104.050;2023-01-09T08:26:45;237.40;;;108.00;;
17858;SDS011;35426;30.698;104.050;2023-01-09T08:29:21;247.17;;;106.53;;
17858;SDS011;35426;30.698;104.050;2023-01-09T08:31:57;251.47;;;107.87;;
17858;SDS011;35426;30.698;104.050;2023-01-09T08:34:32;240.47;;;105.53;;
17858;SDS011;35426;30.698;104.050;2023-01-09T08:37:12;231.33;;;103.20;;
17858;SDS011;35426;30.698;104.050;2023-01-09T08:39:47;228.60;;;103.43;;
17858;SDS011;35426;30.698;104.050;2023-01-09T08:42:24;241.93;;;102.97;;
17858;SDS011;35426;30.698;104.050;2023-01-09T08:45:15;233.13;;;104.47;;
17858;SDS011;35426;30.698;104.050;2023-01-09T08:48:07;228.97;;;102.07;;
17858;SDS011;35426;30.698;104.050;2023-01-09T08:50:42;228.50;;;103.47;;
17858;SDS011;35426;30.698;104.050;2023-01-09T08:53:19;231.27;;;102.67;;
17858;SDS011;35426;30.698;104.050;2023-01-09T08:55:54;229.10;;;102.80;;
17858;SDS011;35426;30.698;104.050;2023-01-09T08:58:30;232.83;;;103.13;;
17858;SDS011;35426;30.698;104.050;2023-01-09T09:01:05;241.40;;;105.10;;
17858;SDS011;35426;30.698;104.050;2023-01-09T09:03:41;235.40;;;102.27;;
17858;SDS011;35426;30.698;104.050;2023-01-09T09:06:16;228.70;;;102.83;;
17858;SDS011;35426;30.698;104.050;2023-01-09T09:08:58;243.13;;;105.97;;
17858;SDS011;35426;30.698;104.050;2023-01-09T09:11:37;235.80;;;105.13;;
17858;SDS011;35426;30.698;104.050;2023-01-09T09:14:12;229.73;;;101.57;;
17858;SDS011;35426;30.698;104.050;2023-01-09T09:17:12;242.03;;;102.73;;
17858;SDS011;35426;30.698;104.050;2023-01-09T09:19:49;227.53;;;100.03;;
17858;SDS011;35426;30.698;104.050;2023-01-09T09:22:25;242.17;;;103.23;;
17858;SDS011;35426;30.698;104.050;2023-01-09T09:25:02;238.30;;;104.17;;
17858;SDS011;35426;30.698;104.050;2023-01-09T09:27:38;267.87;;;111.63;;
17858;SDS011;35426;30.698;104.050;2023-01-09T09:30:15;234.20;;;102.47;;
17858;SDS011;35426;30.698;104.050;2023-01-09T09:32:51;232.77;;;100.60;;
17858;SDS011;35426;30.698;104.050;2023-01-09T09:35:28;238.57;;;98.50;;
17858;SDS011;35426;30.698;104.050;2023-01-09T09:38:04;225.10;;;96.87;;
17858;SDS011;35426;30.698;104.050;2023-01-09T09:40:50;209.70;;;94.10;;
17858;SDS011;35426;30.698;104.050;2023-01-09T09:44:01;223.13;;;95.70;;
17858;SDS011;35426;30.698;104.050;2023-01-09T09:47:10;220.43;;;95.00;;
17858;SDS011;35426;30.698;104.050;2023-01-09T09:49:59;225.70;;;96.70;;
17858;SDS011;35426;30.698;104.050;2023-01-09T09:52:48;231.07;;;97.17;;
17858;SDS011;35426;30.698;104.050;2023-01-09T09:55:28;225.60;;;94.70;;
17858;SDS011;35426;30.698;104.050;2023-01-09T09:58:09;229.70;;;98.20;;
17858;SDS011;35426;30.698;104.050;2023-01-09T10:00:56;238.10;;;99.70;;
17858;SDS011;35426;30.698;104.050;2023-01-09T10:03:34;522.87;;;249.33;;
17858;SDS011;35426;30.698;104.050;2023-01-09T10:06:11;895.97;;;497.53;;
17858;SDS011;35426;30.698;104.050;2023-01-09T10:08:53;542.20;;;259.87;;
17858;SDS011;35426;30.698;104.050;2023-01-09T10:11:38;996.87;;;368.27;;
17858;SDS011;35426;30.698;104.050;2023-01-09T10:14:21;508.00;;;184.07;;
17858;SDS011;35426;30.698;104.050;2023-01-09T10:17:01;413.67;;;149.10;;
17858;SDS011;35426;30.698;104.050;2023-01-09T10:23:02;241.03;;;100.33;;
17858;SDS011;35426;30.698;104.050;2023-01-09T10:25:51;229.97;;;100.50;;
17858;SDS011;35426;30.698;104.050;2023-01-09T10:28:44;227.17;;;99.03;;
17858;SDS011;35426;30.698;104.050;2023-01-09T10:31:43;234.83;;;100.67;;
17858;SDS011;35426;30.698;104.050;2023-01-09T10:34:32;237.33;;;99.80;;
17858;SDS011;35426;30.698;104.050;2023-01-09T10:37:22;237.10;;;99.53;;
17858;SDS011;35426;30.698;104.050;2023-01-09T10:40:02;243.40;;;101.77;;
17858;SDS011;35426;30.698;104.050;2023-01-09T10:42:46;261.60;;;108.97;;
17858;SDS011;35426;30.698;104.050;2023-01-09T10:45:24;257.63;;;108.13;;
17858;SDS011;35426;30.698;104.050;2023-01-09T10:48:05;236.10;;;101.77;;
17858;SDS011;35426;30.698;104.050;2023-01-09T10:50:52;248.13;;;102.77;;
17858;SDS011;35426;30.698;104.050;2023-01-09T10:53:31;255.80;;;104.40;;
17858;SDS011;35426;30.698;104.050;2023-01-09T10:56:12;239.67;;;104.07;;
17858;SDS011;35426;30.698;104.050;2023-01-09T10:58:53;251.60;;;102.03;;
17858;SDS011;35426;30.698;104.050;2023-01-09T11:01:30;239.37;;;99.77;;
17858;SDS011;35426;30.698;104.050;2023-01-09T11:04:15;238.50;;;101.40;;
17858;SDS011;35426;30.698;104.050;2023-01-09T11:06:57;260.07;;;103.87;;
17858;SDS011;35426;30.698;104.050;2023-01-09T11:12:31;250.97;;;103.60;;
17858;SDS011;35426;30.698;104.050;2023-01-09T11:20:58;252.63;;;103.87;;
17858;SDS011;35426;30.698;104.050;2023-01-09T11:23:47;239.67;;;102.73;;
17858;SDS011;35426;30.698;104.050;2023-01-09T11:26:25;271.27;;;105.87;;
17858;SDS011;35426;30.698;104.050;2023-01-09T11:29:06;242.20;;;99.70;;
17858;SDS011;35426;30.698;104.050;2023-01-09T11:31:50;242.80;;;102.30;;
17858;SDS011;35426;30.698;104.050;2023-01-09T11:34:29;246.60;;;99.27;;
17858;SDS011;35426;30.698;104.050;2023-01-09T11:37:09;239.97;;;97.33;;
17858;SDS011;35426;30.698;104.050;2023-01-09T11:39:53;240.57;;;96.97;;
17858;SDS011;35426;30.698;104.050;2023-01-09T11:42:37;250.20;;;100.70;;
17858;SDS011;35426;30.698;104.050;2023-01-09T11:45:26;234.87;;;97.40;;
17858;SDS011;35426;30.698;104.050;2023-01-09T11:48:11;249.87;;;100.97;;
17858;SDS011;35426;30.698;104.050;2023-01-09T11:51:09;234.50;;;98.03;;
17858;SDS011;35426;30.698;104.050;2023-01-09T11:54:01;240.30;;;99.10;;
17858;SDS011;35426;30.698;104.050;2023-01-09T11:56:50;263.30;;;104.17;;
17858;SDS011;35426;30.698;104.050;2023-01-09T11:59:27;248.93;;;100.73;;
17858;SDS011;35426;30.698;104.050;2023-01-09T12:02:12;243.37;;;100.87;;
17858;SDS011;35426;30.698;104.050;2023-01-09T12:05:16;245.87;;;99.83;;
17858;SDS011;35426;30.698;104.050;2023-01-09T12:08:05;248.27;;;99.77;;
17858;SDS011;35426;30.698;104.050;2023-01-09T12:11:08;244.63;;;100.30;;
17858;SDS011;35426;30.698;104.050;2023-01-09T12:14:08;248.63;;;100.03;;
17858;SDS011;35426;30.698;104.050;2023-01-09T12:17:35;231.43;;;96.57;;
17858;SDS011;35426;30.698;104.050;2023-01-09T12:20:48;226.63;;;96.00;;
17858;SDS011;35426;30.698;104.050;2023-01-09T12:23:53;230.03;;;97.73;;
17858;SDS011;35426;30.698;104.050;2023-01-09T12:26:39;229.40;;;95.97;;
17858;SDS011;35426;30.698;104.050;2023-01-09T12:32:29;240.53;;;97.73;;
17858;SDS011;35426;30.698;104.050;2023-01-09T12:35:27;220.17;;;93.50;;
17858;SDS011;35426;30.698;104.050;2023-01-09T12:41:33;216.67;;;91.80;;
17858;SDS011;35426;30.698;104.050;2023-01-09T12:44:32;213.60;;;91.60;;
17858;SDS011;35426;30.698;104.050;2023-01-09T12:47:26;220.07;;;93.67;;
17858;SDS011;35426;30.698;104.050;2023-01-09T12:50:31;223.83;;;94.73;;
17858;SDS011;35426;30.698;104.050;2023-01-09T12:53:25;230.37;;;96.00;;
17858;SDS011;35426;30.698;104.050;2023-01-09T12:56:05;232.30;;;93.63;;
17858;SDS011;35426;30.698;104.050;2023-01-09T12:58:47;218.97;;;92.20;;
17858;SDS011;35426;30.698;104.050;2023-01-09T13:01:35;214.07;;;93.47;;
17858;SDS011;35426;30.698;104.050;2023-01-09T13:04:20;217.07;;;92.63;;
17858;SDS011;35426;30.698;104.050;2023-01-09T13:07:11;224.53;;;94.63;;
17858;SDS011;35426;30.698;104.050;2023-01-09T13:09:57;217.37;;;90.90;;
17858;SDS011;35426;30.698;104.050;2023-01-09T13:12:38;226.47;;;93.83;;
17858;SDS011;35426;30.698;104.050;2023-01-09T13:15:28;211.13;;;90.70;;
17858;SDS011;35426;30.698;104.050;2023-01-09T13:18:13;226.33;;;94.63;;
17858;SDS011;35426;30.698;104.050;2023-01-09T13:20:59;239.17;;;96.57;;
17858;SDS011;35426;30.698;104.050;2023-01-09T13:23:40;229.63;;;97.57;;
17858;SDS011;35426;30.698;104.050;2023-01-09T13:26:20;228.23;;;96.67;;
17858;SDS011;35426;30.698;104.050;2023-01-09T13:29:01;236.67;;;100.87;;
17858;SDS011;35426;30.698;104.050;2023-01-09T13:34:50;240.93;;;97.93;;
17858;SDS011;35426;30.698;104.050;2023-01-09T13:37:28;237.70;;;96.57;;
17858;SDS011;35426;30.698;104.050;2023-01-09T13:40:18;229.43;;;97.30;;
17858;SDS011;35426;30.698;104.050;2023-01-09T13:43:05;234.13;;;96.57;;
17858;SDS011;35426;30.698;104.050;2023-01-09T13:45:53;231.00;;;95.60;;
17858;SDS011;35426;30.698;104.050;2023-01-09T13:48:37;233.73;;;94.87;;
17858;SDS011;35426;30.698;104.050;2023-01-09T13:55:19;238.07;;;95.70;;
17858;SDS011;35426;30.698;104.050;2023-01-09T13:58:19;228.53;;;98.23;;
17858;SDS011;35426;30.698;104.050;2023-01-09T14:00:59;240.93;;;98.33;;
17858;SDS011;35426;30.698;104.050;2023-01-09T14:07:24;246.00;;;99.70;;
17858;SDS011;35426;30.698;104.050;2023-01-09T14:10:02;241.90;;;97.80;;
17858;SDS011;35426;30.698;104.050;2023-01-09T14:12:53;237.07;;;99.37;;
17858;SDS011;35426;30.698;104.050;2023-01-09T14:15:31;229.97;;;100.30;;
17858;SDS011;35426;30.698;104.050;2023-01-09T14:18:15;243.77;;;97.67;;
17858;SDS011;35426;30.698;104.050;2023-01-09T14:20:56;242.23;;;98.90;;
17858;SDS011;35426;30.698;104.050;2023-01-09T14:23:38;241.50;;;98.40;;
17858;SDS011;35426;30.698;104.050;2023-01-09T14:26:41;227.90;;;96.40;;
17858;SDS011;35426;30.698;104.050;2023-01-09T14:29:39;230.00;;;96.10;;
17858;SDS011;35426;30.698;104.050;2023-01-09T14:35:27;246.77;;;98.17;;
17858;SDS011;35426;30.698;104.050;2023-01-09T14:38:21;234.27;;;96.27;;
17858;SDS011;35426;30.698;104.050;2023-01-09T14:41:10;223.23;;;95.33;;
17858;SDS011;35426;30.698;104.050;2023-01-09T14:44:18;230.43;;;96.33;;
17858;SDS011;35426;30.698;104.050;2023-01-09T14:47:10;223.40;;;96.60;;
17858;SDS011;35426;30.698;104.050;2023-01-09T14:49:50;222.73;;;94.40;;
17858;SDS011;35426;30.698;104.050;2023-01-09T14:52:36;218.57;;;92.60;;
17858;SDS011;35426;30.698;104.050;2023-01-09T14:55:19;221.10;;;94.67;;
17858;SDS011;35426;30.698;104.050;2023-01-09T14:58:11;220.07;;;93.73;;
17858;SDS011;35426;30.698;104.050;2023-01-09T15:01:02;213.90;;;93.13;;
17858;SDS011;35426;30.698;104.050;2023-01-09T15:03:41;223.70;;;96.00;;
17858;SDS011;35426;30.698;104.050;2023-01-09T15:06:23;218.60;;;93.67;;
17858;SDS011;35426;30.698;104.050;2023-01-09T15:09:06;220.33;;;95.40;;
17858;SDS011;35426;30.698;104.050;2023-01-09T15:12:03;221.57;;;95.00;;
17858;SDS011;35426;30.698;104.050;2023-01-09T15:14:45;224.07;;;94.73;;
17858;SDS011;35426;30.698;104.050;2023-01-09T15:17:31;219.33;;;92.90;;
17858;SDS011;35426;30.698;104.050;2023-01-09T15:20:15;227.47;;;94.40;;
17858;SDS011;35426;30.698;104.050;2023-01-09T15:22:55;228.47;;;94.77;;
17858;SDS011;35426;30.698;104.050;2023-01-09T15:25:34;218.80;;;94.57;;
17858;SDS011;35426;30.698;104.050;2023-01-09T15:28:24;231.47;;;96.73;;
17858;SDS011;35426;30.698;104.050;2023-01-09T15:31:08;228.17;;;95.43;;